Terminal Aerodrome Forecast
Issued by NWS

Home | Current Version | Previous Version | Text Only | Print | Product List | Glossary On
Versions: 1 2 3 4 5 6 7 8 9 10 11 12 13 14 15 16 17
563
FTAK31 PAJN 260520
TAFAYA
TAF
PAYA 260520Z 2606/2706 VRB02KT P6SM VCFG FEW002
      TEMPO 2606/2610 1/2SM FG VV004
     FM261200 VRB02KT P6SM BKN040
     FM270000 34004KT P6SM SCT050
      AMD LTD TO CLD VIS AND WIND 2606/2609=

USA.gov is the U.S. government's official web portal to all federal, state and local government web resources and services.